Woodburn, Kentucky
Current Conditions -  °F | °C
As of 11:53 AM on Thursday 23 Oct 2014 (Local Time) from KBWG Reporting Station
Clear Clear  
Wind Chill: 57°   Ceiling: Unl
Heat Index: 57°   Visibility: 10mi
Dew Point: 42°   Wind: 3mph
Humidity: 57%   Direction: NA
Pressure: 30.23"   Gusts: NA
Location:  36.84°N, 86.53°W
Report Text: KBWG 231653Z AUTO VRB03KT 10SM CLR 14/06 A3023 RMK AO2 SLP238 T01390056
Loading
Personal Weather Stations






























Interactive Weather Map
Tropical Storm Tracking
New forecast layout! Learn more

10-Day Weather Forecast

Advertisements
Track Severe Weather on mobile